Terminal Aerodrome Forecast
Issued by NWS

Home | Current Version | Previous Version | Text Only | Print | Product List | Glossary On
Versions: 1 2 3 4 5 6 7 8 9 10 11 12 13 14 15 16 17 18
076
FTUS43 KDTX 230212 AAA
TAFDET
TAF AMD
KDET 230212Z 2302/2324 20009KT 6SM HZ SCT025 BKN040
     FM230500 20010KT 6SM HZ BKN025
     FM230800 21010KT 3SM BR SCT008 BKN015
      TEMPO 2311/2313 2SM -SHRA BR OVC015
     FM231400 24007KT 5SM BR BKN025
     FM231700 31007KT P6SM SCT040 BKN150
     FM232200 01008KT 6SM HZ SCT035 BKN100=

USA.gov is the U.S. government's official web portal to all federal, state and local government web resources and services.